Terminal Aerodrome Forecast
Issued by NWS

Home | Current Version | Previous Version | Text Only | Print | Product List | Glossary On
Versions: 1 2 3 4 5 6 7 8 9 10 11 12 13 14 15 16 17 18 19 20 21
000
FTAK31 PAJN 171100
TAFAYA
TAF
PAYA 171135Z 1712/1812 06003KT P6SM VCFG SCT003 OVC080
      TEMPO 1712/1716 VRB02KT 2SM BR BKN002 OVC010
     FM171600 07004KT 6SM BR VCSH SCT020 OVC050
     FM172200 12006KT P6SM -RA SCT015 OVC025
     FM180400 11008KT 5SM -RA BR SCT010 OVC020
      AMD LTD TO CLD VIS AND WIND 1801/1810=

USA.gov is the U.S. government's official web portal to all federal, state and local government web resources and services.